Pagrindinis puslapis
METAR-TAF:

METAR-TAF

Oro uostai :

Kodiak, Aliaska, Jungtinės Amerikos Valstijos

platuma: 57-45N, ilguma: 152-30W, Aukštis: 22 m

Dabartinis oras

Ataskaita buvo paskelbta 58 minutes, ne 03:53 UTC
Vėjas 6 kt iš Šiaurės Vakarų
Temperatūra 4°C
Drėgmė 65%
Slėgis 1017 hPa
Matomumas: 16.1 km
Apsiniaukę ne aukštis 4000 ft

METAR: PADQ 290353Z 31006KT 10SM OVC040 04/M02 A3002 RMK AO2 SLP167 T00441022

Laikas: 20:51 (04:51 UTC)

Prognozė

Ataskaita buvo paskelbta 5 valandos ir 13 minutes, ne 23:38 UTC
Prognozė galioja nuo 29 metu 00 UTC su 29 metu 24 UTC
Vėjas 7 kt iš Vakarų/Šiaurės Vakarų
Matomumas: 10 km
Su prošvaistėmis ne aukštis 4500 ft

TAF: PADQ 282338Z 2900/2924 29007KT P6SM BKN045

Orai ataskaitas ir orų prognozės (METAR, TAF).

turimą stotys yra geltonos ir raudonos taškus žemėlapyje.

Perkelti pele per norėdami pamatyti stoties vardą.

Tada spustelėkite, norėdami matyti oro stebėjimo ir prognozės.

Norėdami pakeisti žemėlapį: spustelėkite ant žalios mygtukų su juodo kryžiaus žemyn,; žalią mygtuką su brūkšneliu, jei norite nutolinti; arba žalių rodyklių gretimoms žemėlapius.


METAR-TAF: